Time;durP1;ratioP1;P1;durP2;ratioP2;P2;SDS_P1;SDS_P2;PMS_P1;PMS_P2;Temp;Humidity;BMP_temperature;BMP_pressure;BME280_temperature;BME280_humidity;BME280_pressure;Samples;Min_cycle;Max_cycle;Signal;HPM_P1;HPM_P2
2022/07/07 00:02:35;;;;;;;1.90;1.40;;;19.40;95.90;;;;;;5121936;28;20430;-83
2022/07/07 00:05:20;;;;;;;1.83;1.47;;;19.50;93.40;;;;;;5122273;28;20387;-83
2022/07/07 00:08:04;;;;;;;2.90;2.57;;;19.40;94.20;;;;;;5122319;28;20437;-83
2022/07/07 00:10:48;;;;;;;2.10;1.60;;;19.40;92.50;;;;;;5121845;28;20391;-83
2022/07/07 00:13:32;;;;;;;1.67;1.50;;;19.20;93.80;;;;;;5122528;28;20391;-83
2022/07/07 00:16:17;;;;;;;3.27;1.77;;;19.30;93.50;;;;;;5121788;28;20771;-83
2022/07/07 00:19:02;;;;;;;2.27;1.70;;;19.30;94.30;;;;;;5121460;28;20446;-83
2022/07/07 00:21:46;;;;;;;1.53;1.43;;;19.30;94.10;;;;;;5106508;28;20401;-83
2022/07/07 00:24:31;;;;;;;2.60;1.80;;;19.20;93.70;;;;;;5121620;28;20444;-83
2022/07/07 00:27:15;;;;;;;1.60;1.50;;;19.10;98.80;;;;;;5121038;28;20431;-83
2022/07/07 00:30:00;;;;;;;1.87;1.40;;;19.10;99.90;;;;;;5121889;28;20426;-83
2022/07/07 00:32:44;;;;;;;2.53;2.37;;;19.10;99.90;;;;;;5121974;28;20907;-83
2022/07/07 00:35:29;;;;;;;1.97;1.63;;;19.10;99.30;;;;;;5121233;28;20383;-83
2022/07/07 00:38:13;;;;;;;2.33;1.67;;;19.00;99.90;;;;;;5121021;28;20415;-83
2022/07/07 00:40:58;;;;;;;3.47;1.97;;;19.00;99.90;;;;;;5121262;28;20390;-83
2022/07/07 00:43:43;;;;;;;2.03;1.77;;;19.00;99.90;;;;;;5122146;28;20389;-83
2022/07/07 00:46:38;;;;;;;1.50;1.40;;;19.10;99.90;;;;;;5120890;28;20391;-83
2022/07/07 00:49:23;;;;;;;1.83;1.73;;;19.10;99.70;;;;;;5121810;28;20411;-83
2022/07/07 00:52:08;;;;;;;1.53;1.43;;;19.20;99.90;;;;;;5121485;28;20415;-83
2022/07/07 00:54:55;;;;;;;4.47;1.73;;;19.30;99.90;;;;;;5121088;28;20438;-83
2022/07/07 00:57:40;;;;;;;2.00;1.63;;;19.30;98.80;;;;;;5095864;28;20483;-83
2022/07/07 01:00:25;;;;;;;1.67;1.57;;;19.30;99.90;;;;;;5100416;28;20537;-83
2022/07/07 01:03:10;;;;;;;2.27;1.70;;;19.20;99.40;;;;;;5101420;28;20905;-83
2022/07/07 01:05:57;;;;;;;1.53;1.43;;;19.20;98.40;;;;;;5084588;28;20434;-83
2022/07/07 01:08:42;;;;;;;5.87;1.30;;;19.20;99.90;;;;;;5101606;28;20404;-82
2022/07/07 01:11:26;;;;;;;3.87;1.87;;;19.10;98.80;;;;;;5100816;28;20395;-82
2022/07/07 01:14:11;;;;;;;1.60;1.50;;;19.00;99.60;;;;;;5109926;28;20375;-83
2022/07/07 01:16:55;;;;;;;2.23;1.50;;;18.80;99.90;;;;;;5099682;28;20422;-83
2022/07/07 01:19:40;;;;;;;1.80;1.40;;;18.50;98.10;;;;;;5099902;28;20472;-83
2022/07/07 01:22:28;;;;;;;3.60;1.60;;;18.20;99.90;;;;;;5100548;28;20469;-83
2022/07/07 01:25:13;;;;;;;1.93;1.83;;;17.90;99.60;;;;;;5085504;28;20461;-83
2022/07/07 01:27:57;;;;;;;1.70;1.60;;;17.50;99.90;;;;;;5100003;28;20400;-83
2022/07/07 01:30:43;;;;;;;1.70;1.60;;;17.10;99.90;;;;;;5103512;28;20414;-83
2022/07/07 01:33:27;;;;;;;2.90;1.70;;;17.50;99.90;;;;;;5100648;28;20396;-83
2022/07/07 01:36:13;;;;;;;3.87;2.63;;;17.70;99.90;;;;;;5106390;28;20395;-83
2022/07/07 01:38:59;;;;;;;2.93;1.80;;;17.50;99.90;;;;;;5107995;28;20470;-83
2022/07/07 01:41:43;;;;;;;2.20;1.87;;;17.50;99.90;;;;;;5093037;28;20708;-83
2022/07/07 01:44:31;;;;;;;3.10;2.13;;;17.50;99.90;;;;;;5091851;28;20383;-83
2022/07/07 01:47:15;;;;;;;2.80;1.90;;;17.40;99.90;;;;;;5101335;28;20410;-83
2022/07/07 01:50:00;;;;;;;8.40;2.23;;;17.60;99.90;;;;;;5101064;28;20391;-84
2022/07/07 01:52:44;;;;;;;1.60;1.50;;;17.50;99.90;;;;;;5100620;28;20550;-83
2022/07/07 01:55:30;;;;;;;2.30;1.37;;;17.10;99.90;;;;;;5085824;28;20428;-82
2022/07/07 01:58:15;;;;;;;1.63;1.53;;;17.00;99.90;;;;;;5115326;28;20519;-83
2022/07/07 02:00:59;;;;;;;1.90;1.80;;;16.90;99.90;;;;;;5130256;28;20422;-84
2022/07/07 02:03:44;;;;;;;1.30;1.20;;;16.90;99.90;;;;;;5120396;28;20398;-83
2022/07/07 02:06:28;;;;;;;1.83;1.73;;;17.10;99.90;;;;;;5120000;28;20460;-83
2022/07/07 02:09:14;;;;;;;6.23;1.73;;;17.20;99.90;;;;;;5120138;28;20457;-83
2022/07/07 02:12:00;;;;;;;1.63;1.40;;;17.00;99.90;;;;;;5119947;28;20839;-83
2022/07/07 02:14:45;;;;;;;1.90;1.80;;;16.70;99.90;;;;;;5119897;28;20388;-83
2022/07/07 02:17:30;;;;;;;2.90;1.87;;;16.90;99.90;;;;;;5104230;28;20529;-83
2022/07/07 02:20:14;;;;;;;1.60;1.50;;;17.10;99.90;;;;;;5119527;28;20814;-83
2022/07/07 02:22:58;;;;;;;3.90;1.80;;;17.20;99.90;;;;;;5119323;28;20523;-83
2022/07/07 02:25:42;;;;;;;2.00;1.90;;;17.20;99.90;;;;;;5120632;28;20392;-83
2022/07/07 02:28:27;;;;;;;8.73;2.27;;;16.80;99.90;;;;;;5123690;28;20386;-83
2022/07/07 02:31:12;;;;;;;12.30;3.00;;;16.70;99.90;;;;;;5124251;28;20415;-83
2022/07/07 02:33:56;;;;;;;2.50;2.30;;;16.90;99.90;;;;;;5124634;28;20415;-83
2022/07/07 02:36:41;;;;;;;1.77;1.50;;;16.70;99.90;;;;;;5124981;28;20391;-83
2022/07/07 02:39:25;;;;;;;2.30;2.10;;;16.70;99.90;;;;;;5124592;28;20504;-83
2022/07/07 02:42:10;;;;;;;1.93;1.83;;;16.90;99.90;;;;;;5124394;28;20415;-83
2022/07/07 02:44:54;;;;;;;4.60;2.27;;;16.90;99.90;;;;;;5100828;28;20392;-83
2022/07/07 02:47:38;;;;;;;2.87;1.90;;;16.80;99.90;;;;;;5123614;28;20395;-83
2022/07/07 02:50:23;;;;;;;4.80;3.30;;;17.00;99.90;;;;;;5123995;28;20403;-83
2022/07/07 02:53:09;;;;;;;2.50;2.30;;;16.80;99.90;;;;;;5124934;28;20516;-83
2022/07/07 02:55:54;;;;;;;3.67;2.47;;;16.90;99.90;;;;;;5124448;28;20450;-83
2022/07/07 02:58:38;;;;;;;4.40;2.03;;;17.00;99.90;;;;;;5140214;28;20516;-80
2022/07/07 03:01:23;;;;;;;1.70;1.60;;;16.90;99.90;;;;;;5124749;28;20399;-80
2022/07/07 03:04:07;;;;;;;2.77;2.00;;;17.10;99.90;;;;;;5140122;28;20387;-80
2022/07/07 03:06:51;;;;;;;1.90;1.80;;;16.70;99.90;;;;;;5140726;28;20383;-80
2022/07/07 03:09:36;;;;;;;2.17;2.07;;;16.80;99.90;;;;;;5139974;28;20391;-80
2022/07/07 03:12:20;;;;;;;2.20;2.10;;;16.60;99.90;;;;;;5138797;28;20371;-80
2022/07/07 03:15:06;;;;;;;2.67;2.47;;;16.80;99.90;;;;;;5129911;28;20384;-83
2022/07/07 03:17:52;;;;;;;1.97;1.87;;;16.80;99.90;;;;;;5123689;28;20469;-83
2022/07/07 03:20:36;;;;;;;3.20;2.20;;;16.70;99.90;;;;;;5123394;28;20813;-83
2022/07/07 03:23:20;;;;;;;2.60;2.27;;;16.80;99.90;;;;;;5123334;28;20399;-83
2022/07/07 03:26:04;;;;;;;2.17;2.07;;;16.80;99.90;;;;;;5107368;28;20386;-83
2022/07/07 03:28:48;;;;;;;3.00;1.90;;;16.70;99.90;;;;;;5123025;28;20529;-83
2022/07/07 03:31:33;;;;;;;2.67;2.47;;;16.60;99.90;;;;;;5122896;28;20383;-83
2022/07/07 03:34:17;;;;;;;2.03;1.93;;;16.80;99.90;;;;;;5123002;28;20388;-83
2022/07/07 03:37:03;;;;;;;9.80;2.90;;;16.70;99.90;;;;;;5122865;28;20960;-83
2022/07/07 03:39:48;;;;;;;3.00;2.23;;;16.80;99.90;;;;;;5105693;28;21023;-83
2022/07/07 03:42:33;;;;;;;3.17;2.10;;;16.80;99.90;;;;;;5108077;28;20809;-83
2022/07/07 03:45:17;;;;;;;7.50;2.87;;;16.80;99.90;;;;;;5091920;28;20475;-83
2022/07/07 03:48:02;;;;;;;3.87;2.83;;;16.50;99.90;;;;;;5099942;28;20407;-83
2022/07/07 03:50:47;;;;;;;2.73;2.53;;;16.50;99.90;;;;;;5068394;28;20431;-83
2022/07/07 03:53:31;;;;;;;3.10;2.57;;;16.50;99.90;;;;;;5101981;28;20777;-83
2022/07/07 03:56:16;;;;;;;2.53;2.33;;;16.40;99.90;;;;;;5086883;28;20431;-83
2022/07/07 03:59:01;;;;;;;5.03;2.60;;;16.70;99.90;;;;;;5123538;27;21027;-83
2022/07/07 04:01:45;;;;;;;2.33;2.13;;;16.60;99.90;;;;;;5143802;27;20404;-81
2022/07/07 04:04:30;;;;;;;3.00;2.50;;;16.70;99.90;;;;;;5142590;27;20390;-82
2022/07/07 04:07:14;;;;;;;3.70;3.10;;;16.70;99.90;;;;;;5142410;27;20382;-83
2022/07/07 04:09:59;;;;;;;3.97;3.13;;;16.60;99.90;;;;;;5142087;27;20409;-81
2022/07/07 04:12:45;;;;;;;2.60;2.40;;;16.30;99.90;;;;;;5145819;27;20740;-80
2022/07/07 04:15:29;;;;;;;2.37;2.17;;;16.40;99.90;;;;;;5130302;27;20390;-81
2022/07/07 04:18:13;;;;;;;2.83;2.63;;;16.50;99.90;;;;;;5130681;27;20390;-79
2022/07/07 04:20:58;;;;;;;2.53;2.33;;;16.40;99.90;;;;;;5131758;27;20422;-81
2022/07/07 04:23:42;;;;;;;2.60;2.40;;;16.20;99.90;;;;;;5147070;27;20531;-80
2022/07/07 04:26:27;;;;;;;5.10;2.80;;;16.10;99.90;;;;;;5145797;27;20387;-81
2022/07/07 04:29:12;;;;;;;3.60;3.30;;;16.10;99.90;;;;;;5145534;27;20471;-81
2022/07/07 04:31:56;;;;;;;3.27;2.70;;;15.90;99.90;;;;;;5130516;27;20390;-80
2022/07/07 04:34:40;;;;;;;3.40;3.10;;;16.00;99.90;;;;;;5145069;27;20382;-81
2022/07/07 04:37:26;;;;;;;3.33;2.73;;;15.80;99.90;;;;;;5129240;27;20427;-80
2022/07/07 04:40:11;;;;;;;3.90;3.30;;;15.70;99.90;;;;;;5144530;27;20472;-80
2022/07/07 04:42:55;;;;;;;3.03;2.83;;;15.80;99.90;;;;;;5129749;27;20463;-80
2022/07/07 04:45:40;;;;;;;3.10;2.90;;;15.80;99.90;;;;;;5143979;27;20397;-80
2022/07/07 04:48:24;;;;;;;3.30;3.10;;;16.10;99.90;;;;;;5128959;27;20405;-81
2022/07/07 04:51:09;;;;;;;4.47;3.60;;;16.20;99.90;;;;;;5127211;27;20452;-81
2022/07/07 04:53:55;;;;;;;3.03;2.70;;;16.30;99.90;;;;;;5144074;27;20409;-80
2022/07/07 04:56:39;;;;;;;3.07;2.73;;;16.00;99.90;;;;;;5143914;27;20503;-80
2022/07/07 04:59:24;;;;;;;3.20;2.63;;;15.80;99.90;;;;;;5144618;27;20454;-81
2022/07/07 05:02:08;;;;;;;3.57;3.27;;;15.90;99.90;;;;;;5114195;28;20462;-80
2022/07/07 05:04:54;;;;;;;4.00;3.30;;;15.90;99.90;;;;;;5100408;28;20549;-80
2022/07/07 05:07:38;;;;;;;7.33;3.53;;;16.20;99.90;;;;;;5097302;28;20477;-79
2022/07/07 05:10:23;;;;;;;11.63;5.57;;;16.10;99.90;;;;;;5107426;28;20411;-80
2022/07/07 05:13:08;;;;;;;3.63;2.37;;;16.10;99.90;;;;;;5088084;28;20439;-80
2022/07/07 05:15:53;;;;;;;8.57;3.13;;;15.90;99.90;;;;;;5103141;28;20485;-80
2022/07/07 05:18:37;;;;;;;2.97;2.77;;;15.80;99.90;;;;;;5100942;28;20484;-80
2022/07/07 05:21:22;;;;;;;3.67;3.27;;;15.90;99.90;;;;;;5073586;28;20416;-81
2022/07/07 05:24:08;;;;;;;4.63;3.80;;;16.10;99.90;;;;;;5115286;28;20439;-81
2022/07/07 05:26:52;;;;;;;3.57;3.37;;;16.30;99.90;;;;;;5102631;28;20472;-81
2022/07/07 05:29:37;;;;;;;4.10;3.70;;;16.50;99.90;;;;;;5091565;28;20431;-80
2022/07/07 05:32:22;;;;;;;3.50;3.30;;;16.40;99.90;;;;;;5120867;28;20595;-81
2022/07/07 05:35:07;;;;;;;5.93;3.73;;;16.20;99.90;;;;;;5101227;28;20447;-81
2022/07/07 05:37:52;;;;;;;3.13;2.67;;;16.40;99.90;;;;;;5122418;28;20832;-81
2022/07/07 05:40:38;;;;;;;4.43;3.60;;;16.40;99.90;;;;;;5098725;28;20479;-81
2022/07/07 05:43:23;;;;;;;3.90;3.53;;;16.40;99.90;;;;;;5117307;28;20491;-81
2022/07/07 05:46:08;;;;;;;3.30;3.00;;;16.50;99.90;;;;;;5112582;28;20439;-82
2022/07/07 05:48:54;;;;;;;3.70;3.40;;;16.60;99.90;;;;;;5101743;28;20400;-80
2022/07/07 05:51:39;;;;;;;3.33;2.90;;;16.60;99.90;;;;;;5110806;28;20419;-81
2022/07/07 05:54:23;;;;;;;3.90;3.60;;;16.80;99.90;;;;;;5109228;28;20447;-80
2022/07/07 05:57:08;;;;;;;6.10;3.67;;;16.70;99.90;;;;;;5086989;28;20482;-80
2022/07/07 05:59:52;;;;;;;4.97;3.27;;;17.10;99.90;;;;;;5100190;28;20485;-80
2022/07/07 06:02:36;;;;;;;3.80;2.97;;;17.00;99.90;;;;;;5078129;28;20406;-80
2022/07/07 06:05:22;;;;;;;7.90;4.30;;;16.70;99.90;;;;;;5100053;28;20480;-81
2022/07/07 06:08:06;;;;;;;4.07;3.77;;;16.60;99.90;;;;;;5106243;28;20430;-81
2022/07/07 06:10:51;;;;;;;4.00;3.67;;;16.50;99.90;;;;;;5105932;28;20437;-80
2022/07/07 06:13:36;;;;;;;3.40;3.10;;;16.60;99.90;;;;;;5116200;28;20554;-80
2022/07/07 06:16:38;;;;;;;5.47;3.60;;;16.80;99.90;;;;;;5088866;28;20806;-81
2022/07/07 06:19:23;;;;;;;3.50;3.20;;;16.70;99.90;;;;;;5108049;28;20854;-81
2022/07/07 06:22:07;;;;;;;5.30;4.83;;;16.90;99.90;;;;;;5093283;28;20428;-80
2022/07/07 06:24:54;;;;;;;5.50;4.10;;;17.00;99.90;;;;;;5092228;28;20530;-80
2022/07/07 06:27:39;;;;;;;7.87;3.33;;;16.90;99.90;;;;;;5094883;28;20473;-81
2022/07/07 06:30:24;;;;;;;4.57;3.90;;;17.30;99.90;;;;;;5100808;28;20448;-81
2022/07/07 06:33:09;;;;;;;12.83;3.80;;;17.20;99.90;;;;;;5080435;28;20850;-81
2022/07/07 06:35:53;;;;;;;4.37;3.97;;;17.30;99.90;;;;;;5100467;28;20461;-81
2022/07/07 06:38:38;;;;;;;5.43;3.40;;;17.10;99.90;;;;;;5112300;28;20422;-80
2022/07/07 06:41:32;;;;;;;4.63;3.47;;;17.00;99.90;;;;;;5092531;28;20990;-81
2022/07/07 06:44:16;;;;;;;3.30;3.00;;;17.00;99.90;;;;;;5109550;28;20446;-81
2022/07/07 06:47:01;;;;;;;3.80;3.50;;;17.30;99.90;;;;;;5104401;28;20458;-81
2022/07/07 06:49:46;;;;;;;5.73;3.07;;;17.30;99.90;;;;;;5058043;28;20481;-81
2022/07/07 06:52:30;;;;;;;4.53;3.73;;;16.90;99.90;;;;;;5064029;28;20491;-81
2022/07/07 06:55:15;;;;;;;4.27;3.87;;;17.00;99.90;;;;;;5048439;28;20825;-81
2022/07/07 06:58:02;;;;;;;3.77;3.27;;;17.00;99.90;;;;;;5065520;28;20475;-79
2022/07/07 07:00:46;;;;;;;3.73;3.53;;;17.20;99.90;;;;;;5050727;28;20468;-80
2022/07/07 07:03:31;;;;;;;8.23;4.30;;;17.00;99.90;;;;;;5058553;28;20487;-81
2022/07/07 07:06:16;;;;;;;3.37;3.17;;;17.00;99.90;;;;;;5063500;28;20490;-79
2022/07/07 07:09:00;;;;;;;7.63;3.40;;;17.10;99.90;;;;;;5065841;28;20451;-80
2022/07/07 07:11:45;;;;;;;4.20;3.33;;;17.20;99.90;;;;;;5064586;28;20433;-81
2022/07/07 07:14:30;;;;;;;6.30;3.93;;;17.30;99.90;;;;;;5067552;28;21749;-80
2022/07/07 07:17:15;;;;;;;3.93;3.63;;;17.40;99.90;;;;;;5069723;28;20433;-81
2022/07/07 07:20:12;;;;;;;5.43;3.53;;;17.30;99.90;;;;;;5083425;28;20937;-79
2022/07/07 07:22:56;;;;;;;3.93;3.60;;;17.50;99.90;;;;;;5114610;27;20797;-82
2022/07/07 07:25:41;;;;;;;3.43;3.23;;;17.40;99.90;;;;;;5091771;27;20430;-81
2022/07/07 07:28:25;;;;;;;4.30;3.37;;;17.70;99.90;;;;;;5107088;27;20427;-83
2022/07/07 07:31:10;;;;;;;4.90;4.40;;;17.60;99.90;;;;;;5104614;28;20935;-81
2022/07/07 07:33:54;;;;;;;5.37;3.90;;;17.40;99.90;;;;;;5086087;28;20429;-80
2022/07/07 07:40:27;;;;;;;4.83;4.00;;;17.00;99.90;;;;;;5097552;27;20934;-84
2022/07/07 07:43:49;;;;;;;4.37;3.97;;;16.90;99.90;;;;;;5094697;27;20426;-84
2022/07/07 07:46:34;;;;;;;6.87;4.90;;;16.70;99.90;;;;;;5106314;28;20420;-83
2022/07/07 07:49:18;;;;;;;5.63;4.30;;;16.70;99.90;;;;;;5105870;28;20447;-82
2022/07/07 07:52:09;;;;;;;6.83;5.23;;;16.90;99.90;;;;;;5112458;27;20844;-85
2022/07/07 07:54:54;;;;;;;6.20;5.60;;;16.70;99.90;;;;;;5080000;28;20496;-83
2022/07/07 07:57:38;;;;;;;5.10;4.70;;;16.70;99.90;;;;;;5105173;28;20471;-84
2022/07/07 08:00:24;;;;;;;5.50;5.00;;;16.50;99.90;;;;;;5109117;28;20463;-83
2022/07/07 08:03:09;;;;;;;7.13;5.70;;;16.40;99.90;;;;;;5104827;28;20447;-83
2022/07/07 08:05:53;;;;;;;5.77;5.33;;;16.60;99.90;;;;;;5095071;28;20477;-81
2022/07/07 08:08:38;;;;;;;9.80;5.20;;;16.50;99.90;;;;;;5095862;28;20423;-82
2022/07/07 08:11:23;;;;;;;5.43;5.03;;;16.50;99.90;;;;;;5111704;27;20465;-81
2022/07/07 08:14:08;;;;;;;5.43;4.90;;;16.40;99.90;;;;;;5089730;28;20945;-81
2022/07/07 08:16:52;;;;;;;8.80;5.60;;;16.60;99.90;;;;;;5108769;27;20430;-78
2022/07/07 08:19:37;;;;;;;6.10;5.50;;;16.80;99.90;;;;;;5104819;28;20459;-78
2022/07/07 08:22:22;;;;;;;6.60;4.93;;;16.40;99.90;;;;;;5107835;28;20527;-80
2022/07/07 08:25:07;;;;;;;8.47;5.70;;;16.40;99.90;;;;;;5130385;27;20431;-80
2022/07/07 08:27:52;;;;;;;10.53;6.20;;;16.00;99.90;;;;;;5095027;28;20454;-80
2022/07/07 08:30:36;;;;;;;5.67;5.17;;;16.00;99.90;;;;;;5121529;28;20492;-79
2022/07/07 08:33:20;;;;;;;7.70;5.67;;;16.00;99.90;;;;;;5126401;28;20439;-80
2022/07/07 08:36:06;;;;;;;9.10;5.53;;;16.00;99.90;;;;;;5125757;28;20439;-80
2022/07/07 08:38:50;;;;;;;9.20;6.00;;;16.10;99.90;;;;;;5121964;28;20435;-80
2022/07/07 08:41:35;;;;;;;11.53;5.93;;;15.80;99.90;;;;;;5117322;28;20424;-80
2022/07/07 08:44:20;;;;;;;6.83;6.10;;;15.90;99.90;;;;;;5084306;28;20819;-79
2022/07/07 08:47:05;;;;;;;6.33;5.73;;;16.00;99.90;;;;;;5120837;28;20442;-80
2022/07/07 08:49:49;;;;;;;12.40;6.77;;;15.90;99.90;;;;;;5120740;27;20519;-80
2022/07/07 08:52:34;;;;;;;10.47;6.80;;;16.10;99.90;;;;;;5116737;28;20447;-80
2022/07/07 08:55:22;;;;;;;7.90;6.60;;;16.20;99.90;;;;;;5100146;28;20419;-80
2022/07/07 08:58:09;;;;;;;13.07;7.53;;;16.30;99.90;;;;;;5101686;28;20534;-79
2022/07/07 09:00:53;;;;;;;8.70;7.07;;;16.60;99.90;;;;;;5072817;28;20462;-81
2022/07/07 09:03:40;;;;;;;8.37;7.53;;;16.70;99.90;;;;;;5087050;28;20462;-80
2022/07/07 09:06:25;;;;;;;9.70;7.43;;;16.50;99.90;;;;;;5099846;28;20987;-81
2022/07/07 09:09:10;;;;;;;7.53;6.37;;;16.70;99.90;;;;;;5087392;28;20484;-80
2022/07/07 09:12:04;;;;;;;6.83;4.80;;;16.60;99.90;;;;;;5077510;28;20439;-81
2022/07/07 09:14:52;;;;;;;6.57;5.90;;;16.60;99.90;;;;;;5108794;28;20471;-80
2022/07/07 09:17:36;;;;;;;9.57;4.73;;;17.10;99.90;;;;;;5097810;28;20448;-81
2022/07/07 09:20:22;;;;;;;5.87;5.37;;;16.90;99.90;;;;;;5095581;28;20522;-79
2022/07/07 09:23:08;;;;;;;5.57;4.53;;;17.10;99.90;;;;;;5097477;28;20460;-80
2022/07/07 09:25:53;;;;;;;9.40;5.03;;;16.90;99.90;;;;;;5089577;28;20757;-80
2022/07/07 09:28:42;;;;;;;6.50;5.87;;;16.90;99.90;;;;;;5100595;28;20846;-80
2022/07/07 09:32:07;;;;;;;12.00;5.53;;;16.80;99.90;;;;;;5096396;28;20456;-80
2022/07/07 09:34:52;;;;;;;6.40;5.80;;;16.40;99.90;;;;;;5058400;28;20450;-80
2022/07/07 09:40:35;;;;;;;6.13;5.63;;;16.30;99.90;;;;;;5049721;28;20479;-80
2022/07/07 09:43:20;;;;;;;8.13;5.87;;;16.40;99.90;;;;;;5064085;28;20462;-80
2022/07/07 09:46:07;;;;;;;5.57;4.80;;;16.40;99.90;;;;;;5005525;28;20948;-81
2022/07/07 09:48:54;;;;;;;5.73;5.30;;;16.20;99.90;;;;;;5003738;28;20511;-78
2022/07/07 09:51:38;;;;;;;6.50;5.87;;;16.30;99.90;;;;;;5002523;28;20499;-79
2022/07/07 09:54:23;;;;;;;7.87;5.70;;;16.10;99.90;;;;;;5004151;28;20484;-80
2022/07/07 09:57:08;;;;;;;8.03;6.40;;;16.20;99.90;;;;;;5010204;28;20494;-81
2022/07/07 09:59:53;;;;;;;9.20;7.47;;;16.40;99.90;;;;;;5021369;28;20479;-80
2022/07/07 10:02:38;;;;;;;7.03;6.43;;;16.40;99.90;;;;;;5026520;28;21010;-81
2022/07/07 10:05:24;;;;;;;7.97;7.27;;;16.50;99.90;;;;;;5043496;28;20479;-79
2022/07/07 10:08:09;;;;;;;8.30;5.77;;;16.60;99.90;;;;;;5052672;28;20429;-79
2022/07/07 10:10:53;;;;;;;7.20;6.60;;;16.40;99.90;;;;;;5049517;28;20454;-79
2022/07/07 10:13:43;;;;;;;7.70;6.70;;;16.60;99.90;;;;;;5059471;28;20430;-79
2022/07/07 10:16:28;;;;;;;9.40;5.83;;;16.80;99.90;;;;;;5083976;28;20465;-80
2022/07/07 10:19:16;;;;;;;6.40;5.90;;;16.80;99.90;;;;;;5119291;28;20471;-79
2022/07/07 10:22:03;;;;;;;10.93;6.50;;;16.80;99.90;;;;;;5121228;28;20448;-80
2022/07/07 10:24:48;;;;;;;6.50;6.00;;;16.90;99.90;;;;;;5123569;28;20462;-80
2022/07/07 10:27:35;;;;;;;7.07;6.47;;;16.80;99.90;;;;;;5101936;27;20468;-81
2022/07/07 10:30:34;;;;;;;10.40;7.30;;;16.90;99.90;;;;;;5109856;28;20442;-79
2022/07/07 10:33:20;;;;;;;6.43;5.83;;;17.50;99.90;;;;;;5118921;28;20432;-80
2022/07/07 10:36:05;;;;;;;7.93;7.33;;;17.50;99.90;;;;;;5109668;28;20459;-79
2022/07/07 10:38:52;;;;;;;7.03;6.20;;;17.90;99.90;;;;;;5113981;28;20489;-79
2022/07/07 10:41:38;;;;;;;8.83;7.13;;;17.40;99.90;;;;;;5106405;28;20458;-80
2022/07/07 10:44:23;;;;;;;6.73;5.87;;;17.30;99.90;;;;;;5125327;28;20458;-80
2022/07/07 10:47:30;;;;;;;6.73;5.80;;;17.50;99.90;;;;;;5122044;28;20420;-80
2022/07/07 10:50:26;;;;;;;8.10;6.40;;;17.70;99.90;;;;;;5112314;28;20423;-79
2022/07/07 10:53:30;;;;;;;9.30;8.00;;;18.00;99.90;;;;;;5111341;28;20538;-80
2022/07/07 10:56:15;;;;;;;11.80;8.03;;;18.00;99.90;;;;;;5111085;28;20486;-80
2022/07/07 10:59:00;;;;;;;6.53;5.93;;;17.70;99.90;;;;;;5126229;27;20454;-80
2022/07/07 11:02:07;;;;;;;8.97;7.47;;;17.50;99.90;;;;;;5125516;28;20442;-79
2022/07/07 11:04:52;;;;;;;9.43;6.50;;;17.80;99.90;;;;;;5127189;27;20512;-79
2022/07/07 11:07:36;;;;;;;12.00;7.10;;;17.40;99.90;;;;;;5126704;27;20418;-79
2022/07/07 11:10:21;;;;;;;8.73;7.93;;;17.50;99.90;;;;;;5126948;27;20427;-80
2022/07/07 11:13:29;;;;;;;8.60;7.10;;;17.50;99.90;;;;;;5110230;28;20482;-81
2022/07/07 11:16:20;;;;;;;8.17;7.40;;;17.60;99.90;;;;;;5117838;27;20452;-81
2022/07/07 11:19:07;;;;;;;8.00;7.20;;;17.80;99.90;;;;;;5092179;27;20490;-79
2022/07/07 11:21:51;;;;;;;7.40;6.70;;;17.50;99.90;;;;;;5106208;28;20455;-81
2022/07/07 11:24:36;;;;;;;7.90;7.10;;;17.30;99.90;;;;;;5107430;28;20454;-79
2022/07/07 11:27:28;;;;;;;17.03;8.30;;;17.10;99.90;;;;;;5100354;28;20434;-80
2022/07/07 11:30:12;;;;;;;8.90;7.80;;;17.10;99.90;;;;;;5106806;28;20419;-80
2022/07/07 11:33:00;;;;;;;9.70;8.60;;;17.10;99.90;;;;;;5113649;27;20427;-80
2022/07/07 11:35:45;;;;;;;10.13;9.00;;;17.40;99.90;;;;;;5097009;28;20442;-80
2022/07/07 11:38:31;;;;;;;10.13;8.67;;;17.60;99.90;;;;;;5097046;28;20585;-80
2022/07/07 11:41:17;;;;;;;9.03;8.13;;;17.70;99.90;;;;;;5116839;28;20491;-82
2022/07/07 11:44:02;;;;;;;7.97;7.27;;;17.40;99.90;;;;;;5088302;28;20447;-80
2022/07/07 11:46:50;;;;;;;8.70;7.83;;;17.20;99.90;;;;;;5094369;28;20909;-81
2022/07/07 11:49:35;;;;;;;8.87;8.00;;;17.10;99.90;;;;;;5116551;28;20518;-80
2022/07/07 11:52:22;;;;;;;9.10;7.83;;;17.10;99.90;;;;;;5080811;28;20812;-79
2022/07/07 11:55:06;;;;;;;8.93;8.10;;;17.20;99.90;;;;;;5099182;28;20451;-81
2022/07/07 11:57:54;;;;;;;8.63;7.80;;;17.50;99.90;;;;;;5089676;28;20468;-80
2022/07/07 12:00:40;;;;;;;8.47;6.50;;;17.60;99.90;;;;;;5112876;28;20446;-79
2022/07/07 12:03:30;;;;;;;5.77;5.27;;;17.80;99.90;;;;;;5106388;28;20574;-81
2022/07/07 12:06:15;;;;;;;5.50;5.00;;;17.90;99.90;;;;;;5084016;28;20959;-79
2022/07/07 12:09:03;;;;;;;5.70;5.27;;;18.20;99.90;;;;;;5045020;28;20455;-82
2022/07/07 12:11:48;;;;;;;10.13;5.73;;;18.50;99.90;;;;;;5100683;28;20441;-80
2022/07/07 12:14:34;;;;;;;6.20;5.70;;;18.80;99.90;;;;;;5100162;28;20431;-81
2022/07/07 12:17:39;;;;;;;13.83;6.83;;;18.60;99.90;;;;;;5084285;28;20458;-81
2022/07/07 12:20:25;;;;;;;6.83;5.40;;;18.90;99.90;;;;;;5055507;28;20496;-81
2022/07/07 12:23:17;;;;;;;7.57;5.87;;;19.20;99.90;;;;;;5044059;28;20440;-80
2022/07/07 12:26:11;;;;;;;5.90;5.40;;;19.40;99.90;;;;;;5059842;28;20489;-80
2022/07/07 12:28:59;;;;;;;4.73;4.33;;;19.60;99.90;;;;;;5066069;28;20428;-78
2022/07/07 12:31:45;;;;;;;4.77;4.23;;;19.50;99.90;;;;;;5069514;28;20546;-78
2022/07/07 12:34:38;;;;;;;4.80;4.40;;;19.60;99.90;;;;;;5074094;28;20438;-80
2022/07/07 12:37:41;;;;;;;4.40;4.00;;;19.40;99.90;;;;;;5062735;28;20963;-78
2022/07/07 12:40:27;;;;;;;3.70;3.50;;;19.50;99.90;;;;;;5047367;28;20469;-78
2022/07/07 12:43:13;;;;;;;4.90;3.67;;;19.40;99.90;;;;;;5066489;28;20443;-79
2022/07/07 12:46:08;;;;;;;4.60;3.13;;;19.50;99.90;;;;;;5116132;28;20423;-81
2022/07/07 12:48:54;;;;;;;3.13;2.83;;;19.60;99.90;;;;;;5082102;28;20512;-79
2022/07/07 12:51:42;;;;;;;4.07;3.70;;;19.70;99.90;;;;;;5116625;28;20519;-79
2022/07/07 12:54:29;;;;;;;3.47;3.20;;;19.70;99.90;;;;;;5115444;28;20470;-80
2022/07/07 12:57:15;;;;;;;3.60;3.30;;;19.70;99.90;;;;;;5099491;28;20544;-80
2022/07/07 13:00:00;;;;;;;3.90;3.50;;;19.80;99.90;;;;;;5097642;28;20488;-81
2022/07/07 13:02:44;;;;;;;4.40;4.00;;;19.90;99.90;;;;;;5077368;28;20431;-80
2022/07/07 13:05:28;;;;;;;3.33;3.13;;;20.00;99.90;;;;;;5115321;27;20434;-80
2022/07/07 13:08:14;;;;;;;3.60;3.40;;;19.70;99.90;;;;;;5087635;28;20424;-80
2022/07/07 13:11:02;;;;;;;6.23;5.63;;;19.70;99.90;;;;;;5079174;28;20530;-81
2022/07/07 13:13:47;;;;;;;3.10;2.80;;;19.90;99.90;;;;;;5103973;28;21000;-79
2022/07/07 13:16:53;;;;;;;3.33;3.07;;;20.90;99.90;;;;;;5104030;28;20430;-78
2022/07/07 13:19:38;;;;;;;3.13;2.80;;;21.40;99.90;;;;;;5096400;28;20466;-80
2022/07/07 13:22:22;;;;;;;2.80;2.60;;;21.80;99.90;;;;;;5113243;28;20500;-81
2022/07/07 13:25:09;;;;;;;3.63;3.00;;;21.70;99.90;;;;;;5098279;28;20411;-82
2022/07/07 13:27:53;;;;;;;2.60;2.40;;;21.40;99.90;;;;;;5075079;28;20443;-79
2022/07/07 13:30:38;;;;;;;3.00;2.80;;;21.50;99.90;;;;;;5098767;28;20911;-81
2022/07/07 13:33:23;;;;;;;2.97;2.77;;;21.00;99.90;;;;;;5083145;28;20482;-81
2022/07/07 13:36:08;;;;;;;2.83;2.57;;;21.10;99.90;;;;;;5098244;27;20461;-80
2022/07/07 13:39:12;;;;;;;3.40;3.10;;;21.00;99.90;;;;;;5092481;27;20423;-81
2022/07/07 13:41:56;;;;;;;3.97;3.47;;;20.90;99.90;;;;;;5085807;28;20559;-81
2022/07/07 13:44:42;;;;;;;3.57;3.27;;;20.90;99.90;;;;;;5079122;28;20420;-81
2022/07/07 13:47:27;;;;;;;3.77;3.40;;;20.40;99.90;;;;;;5064151;28;20460;-80
2022/07/07 13:50:12;;;;;;;3.23;2.90;;;20.50;99.90;;;;;;5076905;28;20441;-80
2022/07/07 13:52:56;;;;;;;3.47;3.27;;;20.40;99.90;;;;;;5059376;28;20477;-78
2022/07/07 13:55:42;;;;;;;3.67;3.37;;;20.00;99.90;;;;;;5046693;28;20477;-80
2022/07/07 13:58:27;;;;;;;8.47;2.97;;;20.30;99.90;;;;;;5038780;28;20459;-80
2022/07/07 14:01:12;;;;;;;4.07;3.77;;;20.40;99.90;;;;;;5027080;28;20466;-79
2022/07/07 14:03:57;;;;;;;3.97;3.67;;;20.40;99.90;;;;;;5037910;28;20508;-79
2022/07/07 14:06:41;;;;;;;4.10;3.10;;;20.30;99.90;;;;;;5008648;28;20937;-81
2022/07/07 14:09:26;;;;;;;4.00;3.70;;;20.30;99.90;;;;;;5027838;28;20466;-82
2022/07/07 14:12:32;;;;;;;4.27;3.57;;;20.30;99.90;;;;;;5007424;28;20451;-80
2022/07/07 14:15:17;;;;;;;4.10;3.60;;;20.30;99.90;;;;;;5038300;28;20962;-81
2022/07/07 14:18:02;;;;;;;3.67;3.37;;;20.30;99.90;;;;;;5025027;28;20488;-81
2022/07/07 14:20:46;;;;;;;4.47;4.17;;;20.00;99.90;;;;;;5030249;28;20906;-81
2022/07/07 14:23:31;;;;;;;3.10;2.90;;;20.00;99.90;;;;;;5049194;28;20445;-81
2022/07/07 14:26:16;;;;;;;3.10;2.90;;;20.00;99.90;;;;;;5047161;28;20463;-81
2022/07/07 14:29:00;;;;;;;3.13;2.93;;;20.00;99.90;;;;;;5046736;28;20436;-81
2022/07/07 14:31:46;;;;;;;2.57;2.37;;;20.00;99.90;;;;;;5046500;28;20421;-81